sensor_id;sensor_type;location;lat;lon;timestamp;P1;durP1;ratioP1;P2;durP2;ratioP2
21601;SDS011;10963;50.934;4.668;2023-03-23T00:01:18;7.23;;;4.30;;
21601;SDS011;10963;50.934;4.668;2023-03-23T00:03:51;6.10;;;4.40;;
21601;SDS011;10963;50.934;4.668;2023-03-23T00:06:20;7.07;;;4.43;;
21601;SDS011;10963;50.934;4.668;2023-03-23T00:08:50;5.07;;;4.20;;
21601;SDS011;10963;50.934;4.668;2023-03-23T00:11:22;5.30;;;4.00;;
21601;SDS011;10963;50.934;4.668;2023-03-23T00:13:51;5.90;;;4.60;;
21601;SDS011;10963;50.934;4.668;2023-03-23T00:16:21;6.67;;;4.57;;
21601;SDS011;10963;50.934;4.668;2023-03-23T00:18:54;6.23;;;4.50;;
21601;SDS011;10963;50.934;4.668;2023-03-23T00:21:22;6.27;;;5.00;;
21601;SDS011;10963;50.934;4.668;2023-03-23T00:23:50;5.53;;;4.43;;
21601;SDS011;10963;50.934;4.668;2023-03-23T00:26:16;9.40;;;4.90;;
21601;SDS011;10963;50.934;4.668;2023-03-23T00:28:42;5.80;;;5.07;;
21601;SDS011;10963;50.934;4.668;2023-03-23T00:31:08;8.37;;;5.10;;
21601;SDS011;10963;50.934;4.668;2023-03-23T00:33:37;6.47;;;4.80;;
21601;SDS011;10963;50.934;4.668;2023-03-23T00:36:08;6.87;;;4.60;;
21601;SDS011;10963;50.934;4.668;2023-03-23T00:38:37;8.00;;;4.57;;
21601;SDS011;10963;50.934;4.668;2023-03-23T00:41:09;5.87;;;4.60;;
21601;SDS011;10963;50.934;4.668;2023-03-23T00:43:36;9.07;;;4.67;;
21601;SDS011;10963;50.934;4.668;2023-03-23T00:46:04;5.13;;;4.43;;
21601;SDS011;10963;50.934;4.668;2023-03-23T00:48:34;9.33;;;5.00;;
21601;SDS011;10963;50.934;4.668;2023-03-23T00:51:09;8.80;;;4.70;;
21601;SDS011;10963;50.934;4.668;2023-03-23T00:53:36;7.73;;;4.73;;
21601;SDS011;10963;50.934;4.668;2023-03-23T00:56:04;6.57;;;4.77;;
21601;SDS011;10963;50.934;4.668;2023-03-23T00:58:31;4.67;;;4.03;;
21601;SDS011;10963;50.934;4.668;2023-03-23T01:00:57;8.07;;;4.70;;
21601;SDS011;10963;50.934;4.668;2023-03-23T01:03:24;6.17;;;4.37;;
21601;SDS011;10963;50.934;4.668;2023-03-23T01:05:53;7.13;;;4.10;;
21601;SDS011;10963;50.934;4.668;2023-03-23T01:08:22;6.60;;;4.40;;
21601;SDS011;10963;50.934;4.668;2023-03-23T01:10:51;7.20;;;4.63;;
21601;SDS011;10963;50.934;4.668;2023-03-23T01:13:28;7.90;;;4.37;;
21601;SDS011;10963;50.934;4.668;2023-03-23T01:15:56;6.33;;;4.50;;
21601;SDS011;10963;50.934;4.668;2023-03-23T01:18:22;5.20;;;4.20;;
21601;SDS011;10963;50.934;4.668;2023-03-23T01:20:48;9.23;;;4.40;;
21601;SDS011;10963;50.934;4.668;2023-03-23T01:23:13;6.03;;;4.50;;
21601;SDS011;10963;50.934;4.668;2023-03-23T01:25:39;9.07;;;4.30;;
21601;SDS011;10963;50.934;4.668;2023-03-23T01:28:08;5.43;;;4.47;;
21601;SDS011;10963;50.934;4.668;2023-03-23T01:30:35;4.77;;;4.27;;
21601;SDS011;10963;50.934;4.668;2023-03-23T01:33:01;5.13;;;4.03;;
21601;SDS011;10963;50.934;4.668;2023-03-23T01:35:27;8.87;;;4.10;;
21601;SDS011;10963;50.934;4.668;2023-03-23T01:37:55;7.53;;;4.40;;
21601;SDS011;10963;50.934;4.668;2023-03-23T01:40:20;6.23;;;4.20;;
21601;SDS011;10963;50.934;4.668;2023-03-23T01:42:46;7.60;;;4.37;;
21601;SDS011;10963;50.934;4.668;2023-03-23T01:51:14;7.20;;;4.87;;
21601;SDS011;10963;50.934;4.668;2023-03-23T01:53:43;5.33;;;3.93;;
21601;SDS011;10963;50.934;4.668;2023-03-23T01:56:18;4.67;;;3.67;;
21601;SDS011;10963;50.934;4.668;2023-03-23T01:58:50;6.27;;;4.20;;
21601;SDS011;10963;50.934;4.668;2023-03-23T02:01:17;5.37;;;3.97;;
21601;SDS011;10963;50.934;4.668;2023-03-23T02:03:46;8.20;;;4.00;;
21601;SDS011;10963;50.934;4.668;2023-03-23T02:06:19;6.17;;;3.93;;
21601;SDS011;10963;50.934;4.668;2023-03-23T02:08:48;6.93;;;4.27;;
21601;SDS011;10963;50.934;4.668;2023-03-23T02:11:18;4.77;;;4.00;;
21601;SDS011;10963;50.934;4.668;2023-03-23T02:13:45;5.23;;;3.97;;
21601;SDS011;10963;50.934;4.668;2023-03-23T02:29:45;5.93;;;3.93;;
21601;SDS011;10963;50.934;4.668;2023-03-23T02:34:49;5.87;;;3.67;;
21601;SDS011;10963;50.934;4.668;2023-03-23T02:37:27;8.13;;;4.03;;
21601;SDS011;10963;50.934;4.668;2023-03-23T02:42:36;8.17;;;3.63;;
21601;SDS011;10963;50.934;4.668;2023-03-23T02:45:10;6.90;;;3.77;;
21601;SDS011;10963;50.934;4.668;2023-03-23T02:47:38;7.23;;;3.50;;
21601;SDS011;10963;50.934;4.668;2023-03-23T02:50:07;7.07;;;3.40;;
21601;SDS011;10963;50.934;4.668;2023-03-23T02:52:38;5.10;;;2.87;;
21601;SDS011;10963;50.934;4.668;2023-03-23T02:55:06;4.00;;;2.83;;
21601;SDS011;10963;50.934;4.668;2023-03-23T02:57:35;4.80;;;2.87;;
21601;SDS011;10963;50.934;4.668;2023-03-23T03:00:03;3.93;;;2.60;;
21601;SDS011;10963;50.934;4.668;2023-03-23T03:02:35;6.53;;;2.70;;
21601;SDS011;10963;50.934;4.668;2023-03-23T03:05:13;5.03;;;2.63;;
21601;SDS011;10963;50.934;4.668;2023-03-23T03:07:58;4.57;;;2.20;;
21601;SDS011;10963;50.934;4.668;2023-03-23T03:16:14;6.67;;;2.43;;
21601;SDS011;10963;50.934;4.668;2023-03-23T03:21:41;4.63;;;2.33;;
21601;SDS011;10963;50.934;4.668;2023-03-23T03:24:13;4.10;;;2.30;;
21601;SDS011;10963;50.934;4.668;2023-03-23T03:26:45;4.30;;;2.60;;
21601;SDS011;10963;50.934;4.668;2023-03-23T03:29:18;5.50;;;2.20;;
21601;SDS011;10963;50.934;4.668;2023-03-23T03:31:50;4.63;;;2.10;;
21601;SDS011;10963;50.934;4.668;2023-03-23T03:34:20;4.83;;;2.23;;
21601;SDS011;10963;50.934;4.668;2023-03-23T03:36:49;7.30;;;2.03;;
21601;SDS011;10963;50.934;4.668;2023-03-23T03:39:17;6.20;;;2.10;;
21601;SDS011;10963;50.934;4.668;2023-03-23T03:41:45;3.43;;;2.03;;
21601;SDS011;10963;50.934;4.668;2023-03-23T03:44:14;5.13;;;1.83;;
21601;SDS011;10963;50.934;4.668;2023-03-23T03:46:40;4.13;;;2.10;;
21601;SDS011;10963;50.934;4.668;2023-03-23T03:49:08;5.50;;;2.23;;
21601;SDS011;10963;50.934;4.668;2023-03-23T03:51:38;6.97;;;2.57;;
21601;SDS011;10963;50.934;4.668;2023-03-23T03:54:05;4.63;;;2.53;;
21601;SDS011;10963;50.934;4.668;2023-03-23T03:56:34;5.83;;;2.30;;
21601;SDS011;10963;50.934;4.668;2023-03-23T03:59:05;7.10;;;2.57;;
21601;SDS011;10963;50.934;4.668;2023-03-23T04:01:36;5.77;;;2.77;;
21601;SDS011;10963;50.934;4.668;2023-03-23T04:04:02;5.13;;;2.80;;
21601;SDS011;10963;50.934;4.668;2023-03-23T04:06:29;5.27;;;2.57;;
21601;SDS011;10963;50.934;4.668;2023-03-23T04:08:57;5.27;;;2.90;;
21601;SDS011;10963;50.934;4.668;2023-03-23T04:11:30;4.10;;;3.03;;
21601;SDS011;10963;50.934;4.668;2023-03-23T04:13:56;8.73;;;3.17;;
21601;SDS011;10963;50.934;4.668;2023-03-23T04:16:24;3.80;;;2.73;;
21601;SDS011;10963;50.934;4.668;2023-03-23T04:18:54;4.13;;;2.47;;
21601;SDS011;10963;50.934;4.668;2023-03-23T04:21:21;7.03;;;2.93;;
21601;SDS011;10963;50.934;4.668;2023-03-23T04:23:46;5.13;;;3.13;;
21601;SDS011;10963;50.934;4.668;2023-03-23T04:26:14;8.77;;;2.60;;
21601;SDS011;10963;50.934;4.668;2023-03-23T04:28:40;7.60;;;2.30;;
21601;SDS011;10963;50.934;4.668;2023-03-23T04:31:06;4.97;;;2.47;;
21601;SDS011;10963;50.934;4.668;2023-03-23T04:33:34;8.30;;;2.37;;
21601;SDS011;10963;50.934;4.668;2023-03-23T04:36:02;6.83;;;2.90;;
21601;SDS011;10963;50.934;4.668;2023-03-23T04:38:28;4.73;;;2.27;;
21601;SDS011;10963;50.934;4.668;2023-03-23T04:40:57;4.23;;;2.17;;
21601;SDS011;10963;50.934;4.668;2023-03-23T04:43:28;6.67;;;2.30;;
21601;SDS011;10963;50.934;4.668;2023-03-23T04:45:55;8.20;;;2.33;;
21601;SDS011;10963;50.934;4.668;2023-03-23T04:48:30;8.73;;;2.33;;
21601;SDS011;10963;50.934;4.668;2023-03-23T04:50:58;9.17;;;2.20;;
21601;SDS011;10963;50.934;4.668;2023-03-23T04:53:29;8.63;;;2.27;;
21601;SDS011;10963;50.934;4.668;2023-03-23T04:55:56;8.00;;;2.07;;
21601;SDS011;10963;50.934;4.668;2023-03-23T04:58:21;10.43;;;2.03;;
21601;SDS011;10963;50.934;4.668;2023-03-23T05:00:52;5.83;;;2.00;;
21601;SDS011;10963;50.934;4.668;2023-03-23T05:03:20;9.07;;;2.03;;
21601;SDS011;10963;50.934;4.668;2023-03-23T05:05:46;7.87;;;2.20;;
21601;SDS011;10963;50.934;4.668;2023-03-23T05:08:17;8.70;;;2.00;;
21601;SDS011;10963;50.934;4.668;2023-03-23T05:10:49;7.03;;;2.43;;
21601;SDS011;10963;50.934;4.668;2023-03-23T05:13:16;4.63;;;1.60;;
21601;SDS011;10963;50.934;4.668;2023-03-23T05:15:47;11.13;;;2.27;;
21601;SDS011;10963;50.934;4.668;2023-03-23T05:18:13;7.13;;;2.00;;
21601;SDS011;10963;50.934;4.668;2023-03-23T05:20:39;6.03;;;2.10;;
21601;SDS011;10963;50.934;4.668;2023-03-23T05:23:09;7.97;;;1.80;;
21601;SDS011;10963;50.934;4.668;2023-03-23T05:25:40;6.30;;;2.17;;
21601;SDS011;10963;50.934;4.668;2023-03-23T05:28:09;4.00;;;1.63;;
21601;SDS011;10963;50.934;4.668;2023-03-23T05:30:38;9.63;;;2.10;;
21601;SDS011;10963;50.934;4.668;2023-03-23T05:33:06;2.43;;;1.63;;
21601;SDS011;10963;50.934;4.668;2023-03-23T05:35:34;3.67;;;1.60;;
21601;SDS011;10963;50.934;4.668;2023-03-23T05:38:01;3.57;;;1.50;;
21601;SDS011;10963;50.934;4.668;2023-03-23T05:40:29;7.63;;;2.00;;
21601;SDS011;10963;50.934;4.668;2023-03-23T05:42:55;2.57;;;1.67;;
21601;SDS011;10963;50.934;4.668;2023-03-23T05:45:24;5.83;;;2.00;;
21601;SDS011;10963;50.934;4.668;2023-03-23T05:47:51;2.63;;;1.40;;
21601;SDS011;10963;50.934;4.668;2023-03-23T05:50:19;3.10;;;1.57;;
21601;SDS011;10963;50.934;4.668;2023-03-23T05:52:46;5.53;;;2.10;;
21601;SDS011;10963;50.934;4.668;2023-03-23T05:55:16;6.03;;;1.73;;
21601;SDS011;10963;50.934;4.668;2023-03-23T05:57:44;5.93;;;1.80;;
21601;SDS011;10963;50.934;4.668;2023-03-23T06:00:13;6.03;;;2.10;;
21601;SDS011;10963;50.934;4.668;2023-03-23T06:02:39;3.87;;;2.03;;
21601;SDS011;10963;50.934;4.668;2023-03-23T06:05:09;6.00;;;2.10;;
21601;SDS011;10963;50.934;4.668;2023-03-23T06:07:35;5.13;;;1.90;;
21601;SDS011;10963;50.934;4.668;2023-03-23T06:10:03;5.37;;;1.73;;
21601;SDS011;10963;50.934;4.668;2023-03-23T06:12:34;3.47;;;1.63;;
21601;SDS011;10963;50.934;4.668;2023-03-23T06:15:02;6.33;;;1.93;;
21601;SDS011;10963;50.934;4.668;2023-03-23T06:17:30;9.00;;;1.77;;
21601;SDS011;10963;50.934;4.668;2023-03-23T06:19:55;5.10;;;1.97;;
21601;SDS011;10963;50.934;4.668;2023-03-23T06:22:27;7.20;;;2.13;;
21601;SDS011;10963;50.934;4.668;2023-03-23T06:24:53;8.17;;;2.00;;
21601;SDS011;10963;50.934;4.668;2023-03-23T06:27:21;5.13;;;2.10;;
21601;SDS011;10963;50.934;4.668;2023-03-23T06:29:52;5.40;;;2.43;;
21601;SDS011;10963;50.934;4.668;2023-03-23T06:32:21;6.40;;;2.33;;
21601;SDS011;10963;50.934;4.668;2023-03-23T06:34:50;6.70;;;2.27;;
21601;SDS011;10963;50.934;4.668;2023-03-23T06:37:22;6.10;;;2.40;;
21601;SDS011;10963;50.934;4.668;2023-03-23T06:39:50;8.33;;;2.60;;
21601;SDS011;10963;50.934;4.668;2023-03-23T06:42:16;5.40;;;2.07;;
21601;SDS011;10963;50.934;4.668;2023-03-23T06:44:43;4.43;;;2.23;;
21601;SDS011;10963;50.934;4.668;2023-03-23T06:47:08;10.00;;;2.60;;
21601;SDS011;10963;50.934;4.668;2023-03-23T06:49:34;5.93;;;2.27;;
21601;SDS011;10963;50.934;4.668;2023-03-23T06:52:00;4.67;;;2.20;;
21601;SDS011;10963;50.934;4.668;2023-03-23T06:54:28;7.80;;;2.70;;
21601;SDS011;10963;50.934;4.668;2023-03-23T06:56:54;9.73;;;3.43;;
21601;SDS011;10963;50.934;4.668;2023-03-23T06:59:20;7.47;;;3.00;;
21601;SDS011;10963;50.934;4.668;2023-03-23T07:01:46;7.70;;;2.70;;
21601;SDS011;10963;50.934;4.668;2023-03-23T07:04:13;8.03;;;2.70;;
21601;SDS011;10963;50.934;4.668;2023-03-23T07:06:42;6.10;;;2.70;;
21601;SDS011;10963;50.934;4.668;2023-03-23T07:09:10;6.50;;;2.30;;
21601;SDS011;10963;50.934;4.668;2023-03-23T07:11:36;6.90;;;2.77;;
21601;SDS011;10963;50.934;4.668;2023-03-23T07:14:04;6.83;;;2.47;;
21601;SDS011;10963;50.934;4.668;2023-03-23T07:16:29;6.80;;;2.67;;
21601;SDS011;10963;50.934;4.668;2023-03-23T07:18:56;7.90;;;2.90;;
21601;SDS011;10963;50.934;4.668;2023-03-23T07:21:25;4.10;;;1.20;;
21601;SDS011;10963;50.934;4.668;2023-03-23T07:23:53;2.00;;;0.90;;
21601;SDS011;10963;50.934;4.668;2023-03-23T07:26:19;1.87;;;0.80;;
21601;SDS011;10963;50.934;4.668;2023-03-23T07:28:45;3.90;;;0.97;;
21601;SDS011;10963;50.934;4.668;2023-03-23T07:31:14;3.97;;;1.00;;
21601;SDS011;10963;50.934;4.668;2023-03-23T07:33:39;3.07;;;0.70;;
21601;SDS011;10963;50.934;4.668;2023-03-23T07:36:08;2.70;;;0.80;;
21601;SDS011;10963;50.934;4.668;2023-03-23T07:38:35;2.03;;;0.83;;
21601;SDS011;10963;50.934;4.668;2023-03-23T07:41:03;5.50;;;0.80;;
21601;SDS011;10963;50.934;4.668;2023-03-23T07:43:30;1.87;;;0.70;;
21601;SDS011;10963;50.934;4.668;2023-03-23T07:45:58;1.43;;;0.60;;
21601;SDS011;10963;50.934;4.668;2023-03-23T07:48:29;2.47;;;0.60;;
21601;SDS011;10963;50.934;4.668;2023-03-23T07:50:55;1.57;;;0.70;;
21601;SDS011;10963;50.934;4.668;2023-03-23T07:53:23;3.40;;;1.03;;
21601;SDS011;10963;50.934;4.668;2023-03-23T07:55:49;4.93;;;1.00;;
21601;SDS011;10963;50.934;4.668;2023-03-23T07:58:15;4.57;;;0.63;;
21601;SDS011;10963;50.934;4.668;2023-03-23T08:00:45;2.03;;;1.07;;
21601;SDS011;10963;50.934;4.668;2023-03-23T08:03:14;2.37;;;1.50;;
21601;SDS011;10963;50.934;4.668;2023-03-23T08:05:40;4.93;;;3.13;;
21601;SDS011;10963;50.934;4.668;2023-03-23T08:08:09;4.17;;;1.50;;
21601;SDS011;10963;50.934;4.668;2023-03-23T08:10:37;3.37;;;1.33;;
21601;SDS011;10963;50.934;4.668;2023-03-23T08:13:05;5.37;;;1.60;;
21601;SDS011;10963;50.934;4.668;2023-03-23T08:15:31;2.93;;;1.13;;
21601;SDS011;10963;50.934;4.668;2023-03-23T08:18:04;2.57;;;1.33;;
21601;SDS011;10963;50.934;4.668;2023-03-23T08:20:32;3.33;;;1.13;;
21601;SDS011;10963;50.934;4.668;2023-03-23T08:23:00;5.43;;;1.83;;
21601;SDS011;10963;50.934;4.668;2023-03-23T08:25:31;1.60;;;1.43;;
21601;SDS011;10963;50.934;4.668;2023-03-23T08:27:57;7.20;;;1.93;;
21601;SDS011;10963;50.934;4.668;2023-03-23T08:30:23;6.70;;;2.23;;
21601;SDS011;10963;50.934;4.668;2023-03-23T08:32:51;6.13;;;2.20;;
21601;SDS011;10963;50.934;4.668;2023-03-23T08:35:17;5.73;;;2.30;;
21601;SDS011;10963;50.934;4.668;2023-03-23T08:37:46;2.27;;;1.73;;
21601;SDS011;10963;50.934;4.668;2023-03-23T08:40:16;5.73;;;1.73;;
21601;SDS011;10963;50.934;4.668;2023-03-23T08:42:44;4.60;;;1.93;;
21601;SDS011;10963;50.934;4.668;2023-03-23T08:45:12;4.87;;;1.67;;
21601;SDS011;10963;50.934;4.668;2023-03-23T08:47:41;3.83;;;1.00;;
21601;SDS011;10963;50.934;4.668;2023-03-23T08:50:08;2.03;;;1.20;;
21601;SDS011;10963;50.934;4.668;2023-03-23T08:52:36;2.70;;;1.40;;
21601;SDS011;10963;50.934;4.668;2023-03-23T08:55:05;3.03;;;1.10;;
21601;SDS011;10963;50.934;4.668;2023-03-23T08:57:36;3.13;;;0.90;;
21601;SDS011;10963;50.934;4.668;2023-03-23T09:00:03;5.43;;;1.70;;
21601;SDS011;10963;50.934;4.668;2023-03-23T09:02:38;2.83;;;1.00;;
21601;SDS011;10963;50.934;4.668;2023-03-23T09:05:05;4.47;;;1.03;;
21601;SDS011;10963;50.934;4.668;2023-03-23T09:07:32;2.37;;;1.00;;
21601;SDS011;10963;50.934;4.668;2023-03-23T09:09:57;2.90;;;1.20;;
21601;SDS011;10963;50.934;4.668;2023-03-23T09:12:27;5.93;;;1.60;;
21601;SDS011;10963;50.934;4.668;2023-03-23T09:14:54;1.83;;;1.30;;
21601;SDS011;10963;50.934;4.668;2023-03-23T09:17:20;3.37;;;1.27;;
21601;SDS011;10963;50.934;4.668;2023-03-23T09:19:48;3.53;;;1.17;;
21601;SDS011;10963;50.934;4.668;2023-03-23T09:22:14;3.30;;;1.37;;
21601;SDS011;10963;50.934;4.668;2023-03-23T09:24:44;4.13;;;1.20;;
21601;SDS011;10963;50.934;4.668;2023-03-23T09:27:11;4.73;;;1.67;;
21601;SDS011;10963;50.934;4.668;2023-03-23T09:29:36;5.93;;;2.30;;
21601;SDS011;10963;50.934;4.668;2023-03-23T09:32:05;3.90;;;1.60;;
21601;SDS011;10963;50.934;4.668;2023-03-23T09:34:32;8.90;;;2.43;;
21601;SDS011;10963;50.934;4.668;2023-03-23T09:37:00;7.00;;;1.73;;
21601;SDS011;10963;50.934;4.668;2023-03-23T09:39:29;5.17;;;1.40;;
21601;SDS011;10963;50.934;4.668;2023-03-23T09:50:27;2.40;;;1.00;;
21601;SDS011;10963;50.934;4.668;2023-03-23T09:52:59;4.53;;;1.40;;
21601;SDS011;10963;50.934;4.668;2023-03-23T09:55:33;3.07;;;1.30;;
21601;SDS011;10963;50.934;4.668;2023-03-23T10:00:49;1.30;;;1.00;;
21601;SDS011;10963;50.934;4.668;2023-03-23T10:03:29;1.87;;;1.07;;
21601;SDS011;10963;50.934;4.668;2023-03-23T10:06:00;1.60;;;1.10;;
21601;SDS011;10963;50.934;4.668;2023-03-23T10:08:26;2.40;;;1.20;;
21601;SDS011;10963;50.934;4.668;2023-03-23T10:16:46;5.77;;;1.30;;
21601;SDS011;10963;50.934;4.668;2023-03-23T10:19:25;2.83;;;1.63;;
21601;SDS011;10963;50.934;4.668;2023-03-23T10:21:54;3.17;;;1.40;;
21601;SDS011;10963;50.934;4.668;2023-03-23T10:24:27;2.13;;;1.30;;
21601;SDS011;10963;50.934;4.668;2023-03-23T10:27:07;3.33;;;1.60;;
21601;SDS011;10963;50.934;4.668;2023-03-23T10:30:02;5.60;;;1.80;;
21601;SDS011;10963;50.934;4.668;2023-03-23T10:32:53;2.07;;;1.40;;
21601;SDS011;10963;50.934;4.668;2023-03-23T10:35:38;6.20;;;1.80;;
21601;SDS011;10963;50.934;4.668;2023-03-23T10:38:13;3.80;;;1.63;;
21601;SDS011;10963;50.934;4.668;2023-03-23T10:40:47;4.33;;;1.67;;
21601;SDS011;10963;50.934;4.668;2023-03-23T10:43:19;3.40;;;1.60;;
21601;SDS011;10963;50.934;4.668;2023-03-23T10:45:45;3.23;;;1.50;;
21601;SDS011;10963;50.934;4.668;2023-03-23T10:48:18;1.97;;;1.30;;
21601;SDS011;10963;50.934;4.668;2023-03-23T10:50:55;3.03;;;1.60;;
21601;SDS011;10963;50.934;4.668;2023-03-23T10:53:26;5.73;;;1.83;;
21601;SDS011;10963;50.934;4.668;2023-03-23T10:55:57;4.00;;;2.00;;
21601;SDS011;10963;50.934;4.668;2023-03-23T10:58:31;4.00;;;1.57;;
21601;SDS011;10963;50.934;4.668;2023-03-23T11:01:01;3.33;;;1.60;;
21601;SDS011;10963;50.934;4.668;2023-03-23T11:06:01;4.83;;;2.33;;
21601;SDS011;10963;50.934;4.668;2023-03-23T11:08:47;9.17;;;2.20;;
21601;SDS011;10963;50.934;4.668;2023-03-23T11:11:26;8.60;;;1.90;;
21601;SDS011;10963;50.934;4.668;2023-03-23T11:16:28;3.00;;;1.87;;
21601;SDS011;10963;50.934;4.668;2023-03-23T11:19:11;7.00;;;2.07;;
21601;SDS011;10963;50.934;4.668;2023-03-23T11:21:39;3.43;;;2.03;;
21601;SDS011;10963;50.934;4.668;2023-03-23T11:24:07;5.50;;;2.33;;
21601;SDS011;10963;50.934;4.668;2023-03-23T11:26:37;6.00;;;2.10;;
21601;SDS011;10963;50.934;4.668;2023-03-23T11:31:53;6.27;;;1.83;;
21601;SDS011;10963;50.934;4.668;2023-03-23T11:34:47;7.53;;;2.33;;
21601;SDS011;10963;50.934;4.668;2023-03-23T11:42:55;8.77;;;2.20;;
21601;SDS011;10963;50.934;4.668;2023-03-23T11:45:39;3.33;;;2.20;;
21601;SDS011;10963;50.934;4.668;2023-03-23T11:48:31;12.63;;;2.40;;
21601;SDS011;10963;50.934;4.668;2023-03-23T11:58:59;5.97;;;2.43;;
21601;SDS011;10963;50.934;4.668;2023-03-23T12:06:54;8.63;;;2.53;;
21601;SDS011;10963;50.934;4.668;2023-03-23T12:12:10;11.03;;;2.77;;
21601;SDS011;10963;50.934;4.668;2023-03-23T12:23:35;4.97;;;2.17;;
21601;SDS011;10963;50.934;4.668;2023-03-23T12:26:19;8.03;;;2.03;;
21601;SDS011;10963;50.934;4.668;2023-03-23T12:31:30;5.20;;;2.20;;
21601;SDS011;10963;50.934;4.668;2023-03-23T12:37:02;5.50;;;1.73;;
21601;SDS011;10963;50.934;4.668;2023-03-23T12:47:50;5.87;;;1.67;;
21601;SDS011;10963;50.934;4.668;2023-03-23T12:53:23;6.53;;;1.70;;
21601;SDS011;10963;50.934;4.668;2023-03-23T12:58:45;4.70;;;1.63;;
21601;SDS011;10963;50.934;4.668;2023-03-23T13:01:14;7.33;;;1.97;;
21601;SDS011;10963;50.934;4.668;2023-03-23T13:11:38;11.93;;;2.20;;
21601;SDS011;10963;50.934;4.668;2023-03-23T13:28:12;6.17;;;3.03;;
21601;SDS011;10963;50.934;4.668;2023-03-23T13:33:38;5.00;;;2.47;;
21601;SDS011;10963;50.934;4.668;2023-03-23T13:36:13;10.47;;;2.67;;
21601;SDS011;10963;50.934;4.668;2023-03-23T13:38:49;8.77;;;2.67;;
21601;SDS011;10963;50.934;4.668;2023-03-23T13:41:20;7.10;;;2.30;;
21601;SDS011;10963;50.934;4.668;2023-03-23T13:43:49;9.30;;;2.83;;
21601;SDS011;10963;50.934;4.668;2023-03-23T13:48:50;8.30;;;2.40;;
21601;SDS011;10963;50.934;4.668;2023-03-23T14:00:10;7.97;;;2.47;;
21601;SDS011;10963;50.934;4.668;2023-03-23T14:02:50;5.43;;;2.63;;
21601;SDS011;10963;50.934;4.668;2023-03-23T14:07:55;10.83;;;2.73;;
21601;SDS011;10963;50.934;4.668;2023-03-23T14:10:25;8.70;;;2.00;;
21601;SDS011;10963;50.934;4.668;2023-03-23T14:13:00;8.40;;;2.13;;
21601;SDS011;10963;50.934;4.668;2023-03-23T14:15:29;6.83;;;2.53;;
21601;SDS011;10963;50.934;4.668;2023-03-23T14:17:55;8.07;;;1.80;;
21601;SDS011;10963;50.934;4.668;2023-03-23T14:20:34;6.00;;;1.73;;
21601;SDS011;10963;50.934;4.668;2023-03-23T14:23:02;5.23;;;1.83;;
21601;SDS011;10963;50.934;4.668;2023-03-23T14:25:29;3.37;;;1.43;;
21601;SDS011;10963;50.934;4.668;2023-03-23T14:27:59;5.80;;;1.87;;
21601;SDS011;10963;50.934;4.668;2023-03-23T14:30:33;9.10;;;2.00;;
21601;SDS011;10963;50.934;4.668;2023-03-23T14:33:05;8.57;;;2.40;;
21601;SDS011;10963;50.934;4.668;2023-03-23T14:35:34;6.90;;;1.80;;
21601;SDS011;10963;50.934;4.668;2023-03-23T14:38:03;11.00;;;1.80;;
21601;SDS011;10963;50.934;4.668;2023-03-23T14:40:36;8.97;;;2.10;;
21601;SDS011;10963;50.934;4.668;2023-03-23T14:43:04;6.30;;;2.10;;
21601;SDS011;10963;50.934;4.668;2023-03-23T14:45:30;6.30;;;2.30;;
21601;SDS011;10963;50.934;4.668;2023-03-23T14:47:58;8.93;;;2.27;;
21601;SDS011;10963;50.934;4.668;2023-03-23T14:50:30;10.60;;;2.50;;
21601;SDS011;10963;50.934;4.668;2023-03-23T14:53:11;6.17;;;2.00;;
21601;SDS011;10963;50.934;4.668;2023-03-23T14:55:49;5.00;;;1.73;;
21601;SDS011;10963;50.934;4.668;2023-03-23T14:58:19;6.17;;;2.07;;
21601;SDS011;10963;50.934;4.668;2023-03-23T15:03:30;5.00;;;2.07;;
21601;SDS011;10963;50.934;4.668;2023-03-23T15:06:10;8.67;;;2.67;;
21601;SDS011;10963;50.934;4.668;2023-03-23T15:08:39;8.13;;;2.70;;
21601;SDS011;10963;50.934;4.668;2023-03-23T15:13:45;10.30;;;2.90;;
21601;SDS011;10963;50.934;4.668;2023-03-23T15:16:21;7.83;;;3.10;;
21601;SDS011;10963;50.934;4.668;2023-03-23T15:19:16;6.83;;;2.50;;
21601;SDS011;10963;50.934;4.668;2023-03-23T15:21:50;6.30;;;2.17;;
21601;SDS011;10963;50.934;4.668;2023-03-23T15:26:54;6.97;;;2.27;;
21601;SDS011;10963;50.934;4.668;2023-03-23T15:29:33;8.93;;;1.97;;
21601;SDS011;10963;50.934;4.668;2023-03-23T15:32:13;8.73;;;2.43;;
21601;SDS011;10963;50.934;4.668;2023-03-23T15:34:44;6.90;;;2.30;;
21601;SDS011;10963;50.934;4.668;2023-03-23T15:39:49;9.20;;;2.30;;
21601;SDS011;10963;50.934;4.668;2023-03-23T15:50:11;8.07;;;3.57;;
21601;SDS011;10963;50.934;4.668;2023-03-23T15:52:43;9.70;;;3.13;;
21601;SDS011;10963;50.934;4.668;2023-03-23T15:55:21;13.90;;;3.07;;
21601;SDS011;10963;50.934;4.668;2023-03-23T15:57:57;6.60;;;2.43;;
21601;SDS011;10963;50.934;4.668;2023-03-23T16:00:24;9.40;;;3.20;;
21601;SDS011;10963;50.934;4.668;2023-03-23T16:02:57;11.10;;;3.10;;
21601;SDS011;10963;50.934;4.668;2023-03-23T16:05:28;7.80;;;3.17;;
21601;SDS011;10963;50.934;4.668;2023-03-23T16:07:54;9.00;;;3.00;;
21601;SDS011;10963;50.934;4.668;2023-03-23T16:10:23;6.63;;;3.10;;
21601;SDS011;10963;50.934;4.668;2023-03-23T16:12:52;10.77;;;3.23;;
21601;SDS011;10963;50.934;4.668;2023-03-23T16:15:21;8.27;;;2.90;;
21601;SDS011;10963;50.934;4.668;2023-03-23T16:17:49;11.17;;;2.77;;
21601;SDS011;10963;50.934;4.668;2023-03-23T16:20:18;12.60;;;3.33;;
21601;SDS011;10963;50.934;4.668;2023-03-23T16:22:46;9.90;;;3.23;;
21601;SDS011;10963;50.934;4.668;2023-03-23T16:25:13;13.23;;;3.00;;
21601;SDS011;10963;50.934;4.668;2023-03-23T16:27:39;8.67;;;2.50;;
21601;SDS011;10963;50.934;4.668;2023-03-23T16:30:12;10.70;;;3.50;;
21601;SDS011;10963;50.934;4.668;2023-03-23T16:32:43;10.27;;;3.10;;
21601;SDS011;10963;50.934;4.668;2023-03-23T16:35:09;9.67;;;2.97;;
21601;SDS011;10963;50.934;4.668;2023-03-23T16:37:37;6.77;;;2.20;;
21601;SDS011;10963;50.934;4.668;2023-03-23T16:40:06;6.13;;;2.50;;
21601;SDS011;10963;50.934;4.668;2023-03-23T16:42:33;7.60;;;2.63;;
21601;SDS011;10963;50.934;4.668;2023-03-23T16:45:01;7.07;;;2.13;;
21601;SDS011;10963;50.934;4.668;2023-03-23T16:47:30;5.33;;;2.13;;
21601;SDS011;10963;50.934;4.668;2023-03-23T16:49:58;6.77;;;2.60;;
21601;SDS011;10963;50.934;4.668;2023-03-23T16:52:23;7.50;;;2.90;;
21601;SDS011;10963;50.934;4.668;2023-03-23T16:54:49;6.93;;;2.87;;
21601;SDS011;10963;50.934;4.668;2023-03-23T16:57:15;8.10;;;2.30;;
21601;SDS011;10963;50.934;4.668;2023-03-23T16:59:43;6.10;;;2.40;;
21601;SDS011;10963;50.934;4.668;2023-03-23T17:02:12;7.67;;;2.03;;
21601;SDS011;10963;50.934;4.668;2023-03-23T17:04:43;6.43;;;2.50;;
21601;SDS011;10963;50.934;4.668;2023-03-23T17:07:10;6.93;;;2.73;;
21601;SDS011;10963;50.934;4.668;2023-03-23T17:09:37;9.10;;;2.40;;
21601;SDS011;10963;50.934;4.668;2023-03-23T17:12:03;11.40;;;2.80;;
21601;SDS011;10963;50.934;4.668;2023-03-23T17:14:29;6.00;;;2.07;;
21601;SDS011;10963;50.934;4.668;2023-03-23T17:16:58;7.03;;;2.10;;
21601;SDS011;10963;50.934;4.668;2023-03-23T17:19:29;9.70;;;2.37;;
21601;SDS011;10963;50.934;4.668;2023-03-23T17:21:57;9.40;;;2.40;;
21601;SDS011;10963;50.934;4.668;2023-03-23T17:24:25;8.80;;;2.60;;
21601;SDS011;10963;50.934;4.668;2023-03-23T17:26:52;7.33;;;2.60;;
21601;SDS011;10963;50.934;4.668;2023-03-23T17:29:18;9.67;;;2.63;;
21601;SDS011;10963;50.934;4.668;2023-03-23T17:31:46;7.83;;;2.40;;
21601;SDS011;10963;50.934;4.668;2023-03-23T17:34:16;10.97;;;2.80;;
21601;SDS011;10963;50.934;4.668;2023-03-23T17:36:42;15.00;;;3.27;;
21601;SDS011;10963;50.934;4.668;2023-03-23T17:39:10;10.00;;;3.27;;
21601;SDS011;10963;50.934;4.668;2023-03-23T17:41:36;8.73;;;3.33;;
21601;SDS011;10963;50.934;4.668;2023-03-23T17:44:02;6.60;;;2.70;;
21601;SDS011;10963;50.934;4.668;2023-03-23T17:46:28;10.40;;;3.07;;
21601;SDS011;10963;50.934;4.668;2023-03-23T17:48:56;9.47;;;3.20;;